Miami, Florida
Current Conditions -  °F | °C
As of 9:53 AM on Monday 22 Dec 2014 (Local Time) from KMIA Reporting Station
Broken Clouds Broken Clouds  
Wind Chill: 78°   Ceiling: 25000
Heat Index: 80°   Visibility: 10mi
Dew Point: 68°   Wind: 9mph
Humidity: 71%   Direction: 160°SSE
Pressure: 30.05"   Gusts: NA
Location:  25.77°N, 80.19°W
Report Text: KMIA 221453Z 16008KT 10SM SCT021 BKN250 26/20 A3005 RMK AO2 SLP177 T02560200 51013
Loading
Personal Weather Stations






























Interactive Weather Map New forecast layout! Learn more

10-Day Weather Forecast

Advertisements
Track Severe Weather on mobile